KVAD/VAD METAR and TAF weather

Enter ICAO airport designator
Station Type Date Time Source
KVAD METAR 2019/08/22 08:56 UTC NOAA

KVAD 220856Z AUTO 00000KT 10SM CLR 23/23 A3003 RMK AO2 SLP169 T02340234 57012 $


Station Type Date Time Source
KVAD Decoded METAR 2019/08/22 08:56 UTC NOAA

Station name not available
Aug 22, 2019 - 04:56 AM EDT / 2019.08.22 0856 UTC
Wind: Calm:0
Visibility: 10 mile(s):0
Sky conditions: clear
Temperature: 74.1 F (23.4 C)
Dew Point: 74.1 F (23.4 C)
Relative Humidity: 100%
Pressure (altimeter): 30.03 in. Hg (1016 hPa)
Pressure tendency: 0.04 inches (1.2 hPa) lower than three hours ago
ob: KVAD 220856Z AUTO 00000KT 10SM CLR 23/23 A3003 RMK AO2 SLP169 T02340234 57012
cycle: 9

Station Type Date Time Source
KVAD TAF 2019/08/22 08:57 UTC NOAA

TAF KVAD 220800Z 2208/2314 VRB03KT 9999 SCT020 QNH3003INS
TEMPO 2210/2213 4800 BR BKN005
BECMG 2217/2218 16006KT 9999 SCT050 SCT120 QNH3004INS
TEMPO 2222/2301 VCTS BKN040CB TX32/2219Z TN24/2209Z

Example: see airport list